createdAt,value
2023-05-12T00:00:25.952Z,17.23
2023-05-12T00:02:52.767Z,17.29
2023-05-12T00:05:19.595Z,17.33
2023-05-12T00:07:46.982Z,17.46
2023-05-12T00:10:14.605Z,17.38
2023-05-12T00:12:41.435Z,17.44
2023-05-12T00:15:08.857Z,17.55
2023-05-12T00:17:35.628Z,17.61
2023-05-12T00:20:03.773Z,17.71
2023-05-12T00:22:31.474Z,17.65
2023-05-12T00:24:58.215Z,17.70
2023-05-12T00:27:24.987Z,17.79
2023-05-12T00:29:51.750Z,17.85
2023-05-12T00:32:18.536Z,17.90
2023-05-12T00:34:45.306Z,17.94
2023-05-12T00:37:12.050Z,17.92
2023-05-12T00:39:38.822Z,17.93
2023-05-12T00:42:05.848Z,17.86
2023-05-12T00:44:32.943Z,17.78
2023-05-12T00:46:59.752Z,17.78
2023-05-12T00:49:27.483Z,17.80
2023-05-12T00:51:56.683Z,17.81
2023-05-12T00:54:23.598Z,17.81
2023-05-12T00:56:50.632Z,17.87
2023-05-12T00:59:18.407Z,17.81
2023-05-12T01:01:45.491Z,17.73
2023-05-12T01:04:13.394Z,17.58
2023-05-12T01:06:55.775Z,17.46
2023-05-12T01:09:22.770Z,17.51
2023-05-12T01:11:49.653Z,17.59
2023-05-12T01:14:18.489Z,17.69
2023-05-12T01:16:53.367Z,17.72
2023-05-12T01:19:41.441Z,17.82
2023-05-12T01:22:10.973Z,17.78
2023-05-12T01:24:51.354Z,17.71
2023-05-12T01:27:21.408Z,17.76
2023-05-12T01:29:49.797Z,17.76
2023-05-12T01:32:18.838Z,17.80
2023-05-12T01:34:46.719Z,17.68
2023-05-12T01:37:14.544Z,17.74
2023-05-12T01:39:41.699Z,17.72
2023-05-12T01:42:13.070Z,17.70
2023-05-12T01:44:39.931Z,17.74
2023-05-12T01:47:09.973Z,17.70
2023-05-12T01:49:38.458Z,17.69
2023-05-12T01:52:07.658Z,17.71
2023-05-12T01:54:34.486Z,17.71
2023-05-12T01:57:01.440Z,17.60
2023-05-12T01:59:28.424Z,17.57
2023-05-12T02:01:55.429Z,17.62
2023-05-12T02:04:28.644Z,17.51
2023-05-12T02:06:56.844Z,17.62
2023-05-12T02:09:24.195Z,17.49
2023-05-12T02:11:54.064Z,17.56
2023-05-12T02:14:20.989Z,17.52
2023-05-12T02:16:52.525Z,17.52
2023-05-12T02:19:21.167Z,17.53
2023-05-12T02:21:48.716Z,17.47
2023-05-12T02:24:16.623Z,17.46
2023-05-12T02:26:44.302Z,17.47
2023-05-12T02:29:12.668Z,17.48
2023-05-12T02:31:39.395Z,17.47
2023-05-12T02:34:15.363Z,17.41
2023-05-12T02:36:42.215Z,17.35
2023-05-12T02:39:09.108Z,17.35
2023-05-12T02:41:36.179Z,17.33
2023-05-12T02:44:03.004Z,17.31
2023-05-12T02:46:30.014Z,17.32
2023-05-12T02:48:57.369Z,17.36
2023-05-12T02:51:24.135Z,17.39
2023-05-12T02:53:50.943Z,17.36
2023-05-12T02:56:18.472Z,17.33
2023-05-12T02:58:45.869Z,17.31
2023-05-12T03:01:12.822Z,17.38
2023-05-12T03:03:41.401Z,17.42
2023-05-12T03:06:08.607Z,17.42
2023-05-12T03:08:36.236Z,17.43
2023-05-12T03:11:03.013Z,17.44
2023-05-12T03:13:29.724Z,17.45
2023-05-12T03:16:01.181Z,17.31
2023-05-12T03:18:29.164Z,17.39
2023-05-12T03:20:56.117Z,17.22
2023-05-12T03:23:24.578Z,17.02
2023-05-12T03:25:51.729Z,16.97
2023-05-12T03:28:18.693Z,16.80
2023-05-12T03:30:45.683Z,16.86
2023-05-12T03:33:12.529Z,16.94
2023-05-12T03:35:39.771Z,16.92
2023-05-12T03:38:06.723Z,16.85
2023-05-12T03:40:33.718Z,16.73
2023-05-12T03:43:00.473Z,16.50
2023-05-12T03:45:27.316Z,16.38
2023-05-12T03:47:54.113Z,16.37
2023-05-12T03:50:21.132Z,16.40
2023-05-12T03:52:48.069Z,16.42
2023-05-12T03:55:14.888Z,16.29
2023-05-12T03:57:42.847Z,16.26
2023-05-12T04:00:10.454Z,16.20
2023-05-12T04:02:43.497Z,16.20
2023-05-12T04:05:10.510Z,16.07
2023-05-12T04:07:37.464Z,15.99
2023-05-12T04:10:04.640Z,15.91
2023-05-12T04:12:31.464Z,15.90
2023-05-12T04:14:58.834Z,15.91
2023-05-12T04:17:25.616Z,15.89
2023-05-12T04:19:53.630Z,15.78
2023-05-12T04:22:20.893Z,15.76
2023-05-12T04:24:48.297Z,15.70
2023-05-12T04:27:15.250Z,15.74
2023-05-12T04:29:42.463Z,15.81
2023-05-12T04:32:09.423Z,15.79
2023-05-12T04:34:36.620Z,15.65
2023-05-12T04:37:03.823Z,15.62
2023-05-12T04:39:30.731Z,15.62
2023-05-12T04:41:59.770Z,15.68
2023-05-12T04:44:28.138Z,15.84
2023-05-12T04:46:56.586Z,15.72
2023-05-12T04:49:23.853Z,15.80
2023-05-12T04:51:50.777Z,15.76
2023-05-12T04:54:17.591Z,15.61
2023-05-12T04:56:44.358Z,15.74
2023-05-12T04:59:11.716Z,15.68
2023-05-12T05:01:39.614Z,15.71
2023-05-12T05:04:06.832Z,15.90
2023-05-12T05:06:33.597Z,15.94
2023-05-12T05:09:01.324Z,16.12
2023-05-12T05:11:28.812Z,15.99
2023-05-12T05:13:56.068Z,16.11
2023-05-12T05:16:24.303Z,16.14
2023-05-12T05:18:52.122Z,16.24
2023-05-12T05:21:19.114Z,16.24
2023-05-12T05:23:45.980Z,16.39
2023-05-12T05:26:12.903Z,16.47
2023-05-12T05:28:40.222Z,16.57
2023-05-12T05:31:08.294Z,16.49
2023-05-12T05:33:35.340Z,16.50
2023-05-12T05:36:03.257Z,16.55
2023-05-12T05:38:30.798Z,16.59
2023-05-12T05:40:57.752Z,16.67
2023-05-12T05:43:26.115Z,16.89
2023-05-12T05:45:53.719Z,16.93
2023-05-12T05:48:21.877Z,16.99
2023-05-12T05:50:49.096Z,16.87
2023-05-12T05:53:18.371Z,16.88
2023-05-12T05:55:45.989Z,16.89
2023-05-12T05:58:13.194Z,16.87
2023-05-12T06:00:40.070Z,16.98
2023-05-12T06:03:07.185Z,17.05
2023-05-12T06:05:34.269Z,17.09
2023-05-12T06:08:01.277Z,17.12
2023-05-12T06:10:28.220Z,17.14
2023-05-12T06:12:55.159Z,17.05
2023-05-12T06:15:22.279Z,17.02
2023-05-12T06:17:49.849Z,17.12
2023-05-12T06:20:16.809Z,17.12
2023-05-12T06:22:45.124Z,17.05
2023-05-12T06:25:12.120Z,17.19
2023-05-12T06:27:38.900Z,17.23
2023-05-12T06:30:07.333Z,17.33
2023-05-12T06:32:34.114Z,17.39
2023-05-12T06:35:03.577Z,17.38
2023-05-12T06:37:30.341Z,17.28
2023-05-12T06:39:57.114Z,17.26
2023-05-12T06:42:25.265Z,17.20
2023-05-12T06:44:52.239Z,17.36
2023-05-12T06:47:20.862Z,17.40
2023-05-12T06:49:50.079Z,17.35
2023-05-12T06:52:17.314Z,17.38
2023-05-12T06:54:44.030Z,17.42
2023-05-12T06:57:10.898Z,17.47
2023-05-12T06:59:37.676Z,17.56
2023-05-12T07:02:04.526Z,17.72
2023-05-12T07:04:31.380Z,17.75
2023-05-12T07:06:58.078Z,17.69
2023-05-12T07:09:24.796Z,17.80
2023-05-12T07:11:51.545Z,17.75
2023-05-12T07:14:18.340Z,17.41
2023-05-12T07:16:45.133Z,17.52
2023-05-12T07:19:11.957Z,17.60
2023-05-12T07:21:38.963Z,17.68
2023-05-12T07:24:06.396Z,17.68
2023-05-12T07:26:33.531Z,17.65
2023-05-12T07:29:01.145Z,17.73
2023-05-12T07:31:28.904Z,17.80
2023-05-12T07:33:55.922Z,18.11
2023-05-12T07:36:22.857Z,18.15
2023-05-12T07:38:49.927Z,18.31
2023-05-12T07:41:17.502Z,18.18
2023-05-12T07:43:44.531Z,18.17
2023-05-12T07:46:11.503Z,18.21
2023-05-12T07:48:40.342Z,18.35
2023-05-12T07:51:08.370Z,18.48
2023-05-12T07:53:35.558Z,18.57
2023-05-12T07:56:02.614Z,18.70
2023-05-12T07:58:29.973Z,18.81
2023-05-12T08:00:59.107Z,18.81
2023-05-12T08:03:26.329Z,18.87
2023-05-12T08:05:53.367Z,18.97
2023-05-12T08:08:20.112Z,19.10
2023-05-12T08:10:46.947Z,19.30
2023-05-12T08:13:13.760Z,19.45
2023-05-12T08:15:40.462Z,19.56
2023-05-12T08:18:07.220Z,19.60
2023-05-12T08:20:34.975Z,19.60
2023-05-12T08:23:01.820Z,19.65
2023-05-12T08:25:30.506Z,19.71
2023-05-12T08:27:59.371Z,19.80
2023-05-12T08:30:27.137Z,19.95
2023-05-12T08:32:55.155Z,20.18
2023-05-12T08:35:22.469Z,20.38
2023-05-12T08:37:49.442Z,20.60
2023-05-12T08:40:21.731Z,20.82
2023-05-12T08:42:57.972Z,20.91
2023-05-12T08:45:26.781Z,20.98
2023-05-12T08:47:54.592Z,21.08
2023-05-12T08:50:23.048Z,21.23
2023-05-12T08:52:50.075Z,21.47
2023-05-12T08:55:18.264Z,21.65
2023-05-12T08:57:48.428Z,21.76
2023-05-12T09:00:16.403Z,21.85
2023-05-12T09:02:53.254Z,21.98
2023-05-12T09:05:22.043Z,22.11
2023-05-12T09:07:50.411Z,22.11
2023-05-12T09:10:33.554Z,22.13
2023-05-12T09:13:13.951Z,21.82
2023-05-12T09:15:44.658Z,21.72
2023-05-12T09:18:11.448Z,21.20
2023-05-12T09:20:38.139Z,21.30
2023-05-12T09:23:18.023Z,21.12
2023-05-12T09:25:47.023Z,21.09
2023-05-12T09:28:14.598Z,20.84
2023-05-12T09:30:42.658Z,20.75
2023-05-12T09:33:12.903Z,20.69
2023-05-12T09:35:40.630Z,20.63
2023-05-12T09:38:09.089Z,20.60
2023-05-12T09:40:36.492Z,20.53
2023-05-12T09:43:07.375Z,20.54
2023-05-12T09:45:39.075Z,20.58
2023-05-12T09:48:18.362Z,20.70
2023-05-12T09:50:53.058Z,20.94
2023-05-12T09:53:20.568Z,21.11
2023-05-12T09:55:48.109Z,21.36
2023-05-12T09:58:16.816Z,21.43
2023-05-12T10:01:12.616Z,21.41
2023-05-12T10:03:33.443Z,21.27
2023-05-12T10:06:03.451Z,20.83
2023-05-12T10:08:36.763Z,20.68
2023-05-12T10:11:06.130Z,20.62
2023-05-12T10:13:33.993Z,20.78
2023-05-12T10:16:01.344Z,20.96
2023-05-12T10:18:28.469Z,20.98
2023-05-12T10:20:56.819Z,20.93
2023-05-12T10:23:27.243Z,20.94
2023-05-12T10:26:01.828Z,21.06
2023-05-12T10:28:29.588Z,21.07
2023-05-12T10:31:00.534Z,21.34
2023-05-12T10:33:27.786Z,21.39
2023-05-12T10:35:54.665Z,21.46
2023-05-12T10:38:21.704Z,21.58
2023-05-12T10:41:02.314Z,21.69
2023-05-12T10:43:37.895Z,21.66
2023-05-12T10:46:13.676Z,21.73
2023-05-12T10:49:02.356Z,21.83
2023-05-12T10:51:31.750Z,21.90
2023-05-12T10:54:02.495Z,21.73
2023-05-12T10:56:44.913Z,21.79
2023-05-12T10:59:15.212Z,21.84
2023-05-12T11:01:44.684Z,21.83
2023-05-12T11:04:16.801Z,22.02
2023-05-12T11:06:45.164Z,21.89
2023-05-12T11:09:13.586Z,21.96
2023-05-12T11:11:40.826Z,22.00
2023-05-12T11:14:08.577Z,22.04
2023-05-12T11:16:42.447Z,22.06
2023-05-12T11:19:09.437Z,22.13
2023-05-12T11:21:37.264Z,21.75
2023-05-12T11:24:04.482Z,21.93
2023-05-12T11:26:31.829Z,21.66
2023-05-12T11:28:59.326Z,21.68
2023-05-12T11:31:26.201Z,21.65
2023-05-12T11:34:12.680Z,21.71
2023-05-12T11:36:44.221Z,21.63
2023-05-12T11:39:20.839Z,21.67
2023-05-12T11:41:50.149Z,21.69
2023-05-12T11:44:24.112Z,21.66
2023-05-12T11:47:03.317Z,21.62
2023-05-12T11:49:31.666Z,21.54
2023-05-12T11:52:00.939Z,21.46
2023-05-12T11:54:31.242Z,21.34
2023-05-12T11:56:58.608Z,21.35
2023-05-12T11:59:33.358Z,20.88
2023-05-12T12:02:04.106Z,21.07
2023-05-12T12:04:41.705Z,20.95
2023-05-12T12:07:09.786Z,20.71
2023-05-12T12:09:41.089Z,20.42
2023-05-12T12:12:11.582Z,20.44
2023-05-12T12:14:38.787Z,20.19
2023-05-12T12:17:05.741Z,20.01
2023-05-12T12:19:32.559Z,20.01
2023-05-12T12:21:59.429Z,20.14
2023-05-12T12:24:26.547Z,20.13
2023-05-12T12:26:53.360Z,20.15
2023-05-12T12:29:20.134Z,20.06
2023-05-12T12:31:47.125Z,20.07
2023-05-12T12:34:14.008Z,19.90
2023-05-12T12:36:41.272Z,19.86
2023-05-12T12:39:08.209Z,19.64
2023-05-12T12:41:34.909Z,19.78
2023-05-12T12:44:01.703Z,19.76
2023-05-12T12:46:28.459Z,19.79
2023-05-12T12:48:57.260Z,19.66
2023-05-12T12:51:24.446Z,19.58
2023-05-12T12:53:51.340Z,19.65
2023-05-12T12:56:18.328Z,19.55
2023-05-12T12:58:45.168Z,19.50
2023-05-12T13:01:11.996Z,19.45
2023-05-12T13:03:38.913Z,19.44
2023-05-12T13:06:13.253Z,19.52
2023-05-12T13:08:40.815Z,19.61
2023-05-12T13:11:09.010Z,19.49
2023-05-12T13:13:37.764Z,19.34
2023-05-12T13:16:04.842Z,19.37
2023-05-12T13:18:31.783Z,19.39
2023-05-12T13:20:59.191Z,19.46
2023-05-12T13:23:26.019Z,19.45
2023-05-12T13:25:52.728Z,19.46
2023-05-12T13:28:19.455Z,19.48
2023-05-12T13:30:46.695Z,19.48
2023-05-12T13:33:13.679Z,19.42
2023-05-12T13:35:40.647Z,19.37
2023-05-12T13:38:07.463Z,19.40
2023-05-12T13:40:34.169Z,19.39
2023-05-12T13:43:00.910Z,19.21
2023-05-12T13:45:27.715Z,19.04
2023-05-12T13:47:54.659Z,19.23
2023-05-12T13:50:21.536Z,19.25
2023-05-12T13:52:48.406Z,19.24
2023-05-12T13:55:20.963Z,19.19
2023-05-12T13:57:48.983Z,19.33
2023-05-12T14:00:17.376Z,19.32
2023-05-12T14:02:44.284Z,19.33
2023-05-12T14:05:11.871Z,19.28
2023-05-12T14:07:38.682Z,19.40
2023-05-12T14:10:05.954Z,19.42
2023-05-12T14:12:32.694Z,19.34
2023-05-12T14:15:15.790Z,19.31
2023-05-12T14:17:46.875Z,19.39
2023-05-12T14:20:14.238Z,19.19
2023-05-12T14:22:41.909Z,19.23
2023-05-12T14:25:09.021Z,19.23
2023-05-12T14:27:35.763Z,19.14
2023-05-12T14:30:02.860Z,19.05
2023-05-12T14:32:30.052Z,19.00
2023-05-12T14:34:57.249Z,19.09
2023-05-12T14:37:24.110Z,18.82
2023-05-12T14:39:51.003Z,18.97
2023-05-12T14:42:18.570Z,18.92
2023-05-12T14:44:45.362Z,17.28
2023-05-12T14:47:12.090Z,16.48
2023-05-12T14:49:38.861Z,16.68
2023-05-12T14:52:06.539Z,16.31
2023-05-12T14:54:33.693Z,16.45
2023-05-12T14:57:00.494Z,15.93
2023-05-12T14:59:29.488Z,15.50
2023-05-12T15:01:56.192Z,14.95
2023-05-12T15:04:23.611Z,14.78
2023-05-12T15:06:50.426Z,14.59
2023-05-12T15:09:17.348Z,14.59
2023-05-12T15:11:46.948Z,14.77
2023-05-12T15:14:13.916Z,14.59
2023-05-12T15:16:41.178Z,14.78
2023-05-12T15:19:08.835Z,15.04
2023-05-12T15:21:36.858Z,15.03
2023-05-12T15:24:04.094Z,15.29
2023-05-12T15:26:33.825Z,15.52
2023-05-12T15:29:02.209Z,15.62
2023-05-12T15:31:30.250Z,15.80
2023-05-12T15:33:57.769Z,15.88
2023-05-12T15:36:24.671Z,15.82
2023-05-12T15:38:51.438Z,15.93
2023-05-12T15:41:18.387Z,15.83
2023-05-12T15:43:45.151Z,15.88
2023-05-12T15:46:11.992Z,15.97
2023-05-12T15:48:39.530Z,15.97
2023-05-12T15:51:06.944Z,15.82
2023-05-12T15:53:34.198Z,15.60
2023-05-12T15:56:01.830Z,15.09
2023-05-12T15:58:28.868Z,14.93
2023-05-12T16:00:56.111Z,14.86
2023-05-12T16:03:23.886Z,14.88
2023-05-12T16:05:51.272Z,14.83
2023-05-12T16:08:18.425Z,14.86
2023-05-12T16:10:45.237Z,14.68
2023-05-12T16:13:11.983Z,14.66
2023-05-12T16:15:38.693Z,14.74
2023-05-12T16:18:09.124Z,14.93
2023-05-12T16:20:37.892Z,15.11
2023-05-12T16:23:04.774Z,15.29
2023-05-12T16:25:31.525Z,15.48
2023-05-12T16:27:58.273Z,15.63
2023-05-12T16:30:25.152Z,15.80
2023-05-12T16:32:52.025Z,15.82
2023-05-12T16:35:19.491Z,15.95
2023-05-12T16:37:46.658Z,16.06
2023-05-12T16:40:14.759Z,16.07
2023-05-12T16:42:42.659Z,16.17
2023-05-12T16:45:10.969Z,16.15
2023-05-12T16:47:37.927Z,15.91
2023-05-12T16:50:05.463Z,16.07
2023-05-12T16:52:32.208Z,16.15
2023-05-12T16:54:58.973Z,16.20
2023-05-12T16:57:26.131Z,16.21
2023-05-12T16:59:52.892Z,16.32
2023-05-12T17:02:19.782Z,16.39
2023-05-12T17:04:46.776Z,16.42
2023-05-12T17:07:13.657Z,16.49
2023-05-12T17:09:40.668Z,16.48
2023-05-12T17:12:08.516Z,16.57
2023-05-12T17:14:35.389Z,16.61
2023-05-12T17:17:02.467Z,16.65
2023-05-12T17:19:29.623Z,16.57
2023-05-12T17:21:56.622Z,16.62
2023-05-12T17:24:23.347Z,16.46
2023-05-12T17:26:50.587Z,16.31
2023-05-12T17:29:17.790Z,16.20
2023-05-12T17:31:44.734Z,16.26
2023-05-12T17:34:11.553Z,16.05
2023-05-12T17:36:38.405Z,15.68
2023-05-12T17:39:05.860Z,15.57
2023-05-12T17:41:32.729Z,15.81
2023-05-12T17:43:59.478Z,16.03
2023-05-12T17:46:26.323Z,16.04
2023-05-12T17:48:53.169Z,16.12
2023-05-12T17:51:20.052Z,16.00
2023-05-12T17:53:46.788Z,16.00
2023-05-12T17:56:13.566Z,16.09
2023-05-12T17:58:40.303Z,15.96
2023-05-12T18:01:07.062Z,15.95
2023-05-12T18:03:35.094Z,15.62
2023-05-12T18:06:02.705Z,15.54
2023-05-12T18:08:29.531Z,15.29
2023-05-12T18:10:56.591Z,15.43
2023-05-12T18:13:23.427Z,15.23
2023-05-12T18:15:50.363Z,15.40
2023-05-12T18:18:17.272Z,15.40
2023-05-12T18:20:44.057Z,15.45
2023-05-12T18:23:10.815Z,15.56
2023-05-12T18:25:37.920Z,15.44
2023-05-12T18:28:06.629Z,15.41
2023-05-12T18:30:33.607Z,15.27
2023-05-12T18:33:00.504Z,15.09
2023-05-12T18:35:27.566Z,15.07
2023-05-12T18:37:54.580Z,15.05
2023-05-12T18:40:21.462Z,14.95
2023-05-12T18:42:48.330Z,14.88
2023-05-12T18:45:15.730Z,14.94
2023-05-12T18:47:42.642Z,14.82
2023-05-12T18:50:09.903Z,14.77
2023-05-12T18:52:36.913Z,14.75
2023-05-12T18:55:03.985Z,14.74
2023-05-12T18:57:30.752Z,14.81
2023-05-12T18:59:57.439Z,14.86
2023-05-12T19:02:24.314Z,14.88
2023-05-12T19:04:52.103Z,14.85
2023-05-12T19:07:19.417Z,14.94
2023-05-12T19:09:49.290Z,15.01
2023-05-12T19:12:16.159Z,14.93
2023-05-12T19:14:43.270Z,15.01
2023-05-12T19:17:10.818Z,15.07
2023-05-12T19:19:38.375Z,14.95
2023-05-12T19:22:05.273Z,14.97
2023-05-12T19:24:32.078Z,14.96
2023-05-12T19:26:59.365Z,14.78
2023-05-12T19:29:26.235Z,14.76
2023-05-12T19:31:53.257Z,14.81
2023-05-12T19:34:20.568Z,14.77
2023-05-12T19:36:47.879Z,14.70
2023-05-12T19:39:14.623Z,14.84
2023-05-12T19:41:41.440Z,14.81
2023-05-12T19:44:08.255Z,14.96
2023-05-12T19:46:35.189Z,15.04
2023-05-12T19:49:02.371Z,15.15
2023-05-12T19:51:29.429Z,15.23
2023-05-12T19:53:56.217Z,15.13
2023-05-12T19:56:23.146Z,15.23
2023-05-12T19:58:49.847Z,15.11
2023-05-12T20:01:16.674Z,15.03
2023-05-12T20:03:43.624Z,15.09
2023-05-12T20:06:10.877Z,14.95
2023-05-12T20:08:38.026Z,15.07
2023-05-12T20:11:04.778Z,15.00
2023-05-12T20:13:31.862Z,15.07
2023-05-12T20:15:59.050Z,14.89
2023-05-12T20:18:26.010Z,14.76
2023-05-12T20:20:52.837Z,14.71
2023-05-12T20:23:19.633Z,14.75
2023-05-12T20:25:46.741Z,14.78
2023-05-12T20:28:14.042Z,14.79
2023-05-12T20:30:41.043Z,14.78
2023-05-12T20:33:08.020Z,14.71
2023-05-12T20:35:34.911Z,14.63
2023-05-12T20:38:01.726Z,14.59
2023-05-12T20:40:28.623Z,14.53
2023-05-12T20:42:55.586Z,14.52
2023-05-12T20:45:22.542Z,14.49
2023-05-12T20:47:49.624Z,14.47
2023-05-12T20:50:17.109Z,14.62
2023-05-12T20:52:46.205Z,14.62
2023-05-12T20:55:13.058Z,14.51
2023-05-12T20:57:40.261Z,14.59
2023-05-12T21:00:11.243Z,14.47
2023-05-12T21:02:38.458Z,14.50
2023-05-12T21:05:05.920Z,14.54
2023-05-12T21:07:33.300Z,14.50
2023-05-12T21:10:00.547Z,14.51
2023-05-12T21:12:27.904Z,14.47
2023-05-12T21:14:54.931Z,14.69
2023-05-12T21:17:21.946Z,14.72
2023-05-12T21:19:48.726Z,14.80
2023-05-12T21:22:15.743Z,14.82
2023-05-12T21:24:42.928Z,14.66
2023-05-12T21:27:10.127Z,14.54
2023-05-12T21:29:36.926Z,14.55
2023-05-12T21:32:07.202Z,14.29
2023-05-12T21:34:35.883Z,14.36
2023-05-12T21:37:02.792Z,14.27
2023-05-12T21:39:29.560Z,14.39
2023-05-12T21:41:56.386Z,14.42
2023-05-12T21:44:23.207Z,14.50
2023-05-12T21:46:49.962Z,14.48
2023-05-12T21:49:16.777Z,14.59
2023-05-12T21:51:43.488Z,14.67
2023-05-12T21:54:10.295Z,14.73
2023-05-12T21:56:37.035Z,14.76
2023-05-12T21:59:03.780Z,14.76
2023-05-12T22:01:39.876Z,14.80
2023-05-12T22:04:07.076Z,14.82
2023-05-12T22:06:34.047Z,14.78
2023-05-12T22:09:00.813Z,14.81
2023-05-12T22:11:27.580Z,14.69
2023-05-12T22:13:54.279Z,14.62
2023-05-12T22:16:25.695Z,14.61
2023-05-12T22:18:55.466Z,14.62
2023-05-12T22:21:22.332Z,14.66
2023-05-12T22:23:49.029Z,14.68
2023-05-12T22:26:15.787Z,14.61
2023-05-12T22:28:42.749Z,14.64
2023-05-12T22:31:09.532Z,14.55
2023-05-12T22:33:36.276Z,14.38
2023-05-12T22:36:03.266Z,14.54
2023-05-12T22:38:30.006Z,14.55
2023-05-12T22:40:56.846Z,14.57
2023-05-12T22:43:23.626Z,14.52
2023-05-12T22:45:55.705Z,14.48
2023-05-12T22:48:22.809Z,14.50
2023-05-12T22:50:53.266Z,14.44
2023-05-12T22:53:22.796Z,14.46
2023-05-12T22:55:49.548Z,14.41
2023-05-12T22:58:16.457Z,14.40
2023-05-12T23:00:43.302Z,14.46
2023-05-12T23:03:10.152Z,14.50
2023-05-12T23:05:36.895Z,14.52
2023-05-12T23:08:03.665Z,14.45
2023-05-12T23:10:30.748Z,14.50
2023-05-12T23:12:57.574Z,14.52
2023-05-12T23:15:24.574Z,14.50
2023-05-12T23:17:51.415Z,14.46
2023-05-12T23:20:18.428Z,14.43
2023-05-12T23:22:46.056Z,14.22
2023-05-12T23:25:13.078Z,14.21
2023-05-12T23:27:40.013Z,14.16
2023-05-12T23:30:07.369Z,13.92
2023-05-12T23:32:34.309Z,13.96
2023-05-12T23:35:01.137Z,13.90
2023-05-12T23:37:27.968Z,13.83
2023-05-12T23:39:54.766Z,13.66
2023-05-12T23:42:21.647Z,13.60
2023-05-12T23:44:48.379Z,13.57
2023-05-12T23:47:15.146Z,13.60
2023-05-12T23:49:42.084Z,13.52
2023-05-12T23:52:08.866Z,13.45
2023-05-12T23:54:35.796Z,13.43
2023-05-12T23:57:03.182Z,13.44
2023-05-12T23:59:29.941Z,13.41
